EHJA

J6-a Sea

J6-a Sea, The Netherlands
METAR EHJA 171825Z AUTO VRB07KT 9999 NSC 14/10 Q1021 W///H///
Observed Flight Rules
Oct-17 @ 18:25 UTC (19 minutes ago) Visual Flight Rules
Wind Visibility Clouds
Variable at 7 knots 10,000+ meters
  • Clear skies
Temperatures Readings
Current 14°C / 57°F
Dewpoint 10°C / 50°F
Humidity 77%
Altimeter 30.15" Hg
Pressure 1021 hPa
Elevation 50
METAR EHJA 171825Z AUTO VRB07KT 9999 NSC 14/10 Q1021 W///H///
Observed Flight Rules
Oct-17 @ 18:25 UTC
(19 minutes ago)
VFR
Wind Visibility
Variable at 7 knots 10,000+ meters
Clouds
  • Clear skies
Temperature Dewpoint
14°C / 57°F 10°C / 50°F
Humidity Altimeter Pressure
77% 30.15" Hg 1021 hPa